createdAt,value
2018-07-25T00:00:00.967Z,66.45
2018-07-25T00:01:01.169Z,66.86
2018-07-25T00:02:01.052Z,66.54
2018-07-25T00:03:00.934Z,66.9
2018-07-25T00:04:00.969Z,66.94
2018-07-25T00:05:01.017Z,66.71
2018-07-25T00:06:00.925Z,66.85
2018-07-25T00:07:01.230Z,66.67
2018-07-25T00:08:00.885Z,66.91
2018-07-25T00:09:01.071Z,66.71
2018-07-25T00:10:00.957Z,66.65
2018-07-25T00:11:01.181Z,66.92
2018-07-25T00:12:00.989Z,66.59
2018-07-25T00:13:00.967Z,66.87
2018-07-25T00:14:01.097Z,66.93
2018-07-25T00:15:01.001Z,66.99
2018-07-25T00:16:01.270Z,66.85
2018-07-25T00:17:01.075Z,66.85
2018-07-25T00:18:01.157Z,66.65
2018-07-25T00:19:01.009Z,66.66
2018-07-25T00:20:00.973Z,66.83
2018-07-25T00:21:01.080Z,66.78
2018-07-25T00:22:01.070Z,66.57
2018-07-25T00:23:01.112Z,66.7
2018-07-25T00:24:00.946Z,66.75
2018-07-25T00:25:01.064Z,66.86
2018-07-25T00:26:01.156Z,66.78
2018-07-25T00:27:01.173Z,66.88
2018-07-25T00:28:01.123Z,66.8
2018-07-25T00:29:01.200Z,66.65
2018-07-25T00:30:01.025Z,66.56
2018-07-25T00:31:01.191Z,66.91
2018-07-25T00:32:01.244Z,66.75
2018-07-25T00:33:00.931Z,66.87
2018-07-25T00:34:01.111Z,66.88
2018-07-25T00:35:01.117Z,66.75
2018-07-25T00:36:00.973Z,67
2018-07-25T00:37:01.120Z,66.86
2018-07-25T00:38:01.016Z,66.85
2018-07-25T00:39:01.057Z,66.67
2018-07-25T00:40:01.036Z,66.71
2018-07-25T00:41:01.140Z,66.52
2018-07-25T00:42:00.974Z,66.63
2018-07-25T00:43:01.298Z,66.66
2018-07-25T00:44:01.026Z,66.7
2018-07-25T00:45:01.273Z,66.78
2018-07-25T00:46:01.402Z,66.63
2018-07-25T00:47:01.023Z,67.01
2018-07-25T00:48:01.028Z,66.59
2018-07-25T00:49:00.941Z,66.88
2018-07-25T00:50:00.859Z,66.77
2018-07-25T00:51:01.110Z,66.91
2018-07-25T00:52:01.146Z,66.77
2018-07-25T00:53:01.269Z,66.46
2018-07-25T00:54:01.219Z,66.82
2018-07-25T00:55:01.132Z,66.88
2018-07-25T00:56:01.191Z,66.89
2018-07-25T00:57:01.265Z,66.81
2018-07-25T00:58:01.247Z,66.71
2018-07-25T00:59:01.113Z,66.9
2018-07-25T01:00:01.064Z,66.6
2018-07-25T01:01:00.993Z,66.63
2018-07-25T01:02:00.932Z,66.82
2018-07-25T01:03:01.082Z,66.77
2018-07-25T01:04:01.148Z,66.82
2018-07-25T01:05:01.027Z,66.95
2018-07-25T01:06:01.216Z,66.62
2018-07-25T01:07:01.168Z,66.77
2018-07-25T01:08:00.948Z,66.65
2018-07-25T01:09:00.900Z,67.09
2018-07-25T01:10:01.097Z,66.85
2018-07-25T01:11:01.049Z,66.89
2018-07-25T01:12:01.136Z,66.75
2018-07-25T01:13:01.060Z,66.73
2018-07-25T01:14:01.027Z,66.93
2018-07-25T01:15:01.008Z,66.81
2018-07-25T01:16:00.985Z,66.74
2018-07-25T01:17:00.960Z,66.75
2018-07-25T01:18:00.964Z,66.79
2018-07-25T01:19:00.980Z,66.86
2018-07-25T01:20:00.987Z,66.94
2018-07-25T01:21:01.135Z,66.54
2018-07-25T01:22:01.020Z,66.74
2018-07-25T01:23:01.233Z,67.01
2018-07-25T01:24:01.174Z,66.74
2018-07-25T01:25:00.971Z,66.86
2018-07-25T01:26:00.997Z,66.86
2018-07-25T01:27:00.898Z,66.8
2018-07-25T01:28:01.129Z,66.68
2018-07-25T01:29:01.093Z,66.47
2018-07-25T01:30:01.207Z,66.62
2018-07-25T01:31:01.099Z,66.59
2018-07-25T01:32:01.218Z,66.79
2018-07-25T01:33:00.866Z,66.78
2018-07-25T01:34:01.006Z,66.48
2018-07-25T01:35:01.005Z,66.76
2018-07-25T01:36:00.917Z,66.74
2018-07-25T01:37:01.019Z,66.88
2018-07-25T01:38:01.149Z,67.07
2018-07-25T01:39:00.954Z,66.75
2018-07-25T01:40:00.965Z,66.55
2018-07-25T01:41:01.272Z,67.03
2018-07-25T01:42:01.055Z,66.82
2018-07-25T01:43:01.047Z,66.87
2018-07-25T01:44:01.044Z,66.64
2018-07-25T01:45:01.046Z,66.8
2018-07-25T01:46:01.151Z,66.89
2018-07-25T01:47:01.380Z,67.04
2018-07-25T01:48:00.946Z,66.48
2018-07-25T01:49:01.354Z,66.65
2018-07-25T01:50:01.242Z,66.93
2018-07-25T01:51:01.170Z,66.99
2018-07-25T01:52:01.214Z,66.9
2018-07-25T01:53:01.023Z,66.66
2018-07-25T01:54:00.867Z,66.47
2018-07-25T01:55:01.157Z,66.95
2018-07-25T01:56:01.102Z,66.71
2018-07-25T01:57:00.917Z,66.72
2018-07-25T01:58:01.339Z,66.86
2018-07-25T01:59:01.085Z,66.62
2018-07-25T02:00:00.970Z,67.11
2018-07-25T02:01:00.867Z,66.88
2018-07-25T02:02:01.193Z,66.67
2018-07-25T02:03:00.860Z,66.73
2018-07-25T02:04:01.199Z,66.87
2018-07-25T02:05:01.178Z,66.8
2018-07-25T02:06:01.021Z,66.96
2018-07-25T02:07:01.094Z,66.52
2018-07-25T02:08:01.357Z,66.64
2018-07-25T02:09:01.036Z,66.9
2018-07-25T02:10:01.089Z,66.92
2018-07-25T02:11:01.100Z,66.8
2018-07-25T02:12:00.898Z,66.67
2018-07-25T02:13:01.006Z,66.74
2018-07-25T02:14:01.189Z,66.74
2018-07-25T02:15:01.087Z,66.98
2018-07-25T02:16:01.217Z,66.79
2018-07-25T02:17:01.125Z,66.69
2018-07-25T02:18:01.158Z,66.69
2018-07-25T02:19:01.109Z,66.88
2018-07-25T02:20:01.194Z,66.81
2018-07-25T02:21:00.936Z,66.69
2018-07-25T02:22:01.150Z,66.74
2018-07-25T02:23:01.175Z,66.98
2018-07-25T02:24:01.169Z,66.78
2018-07-25T02:25:00.999Z,66.63
2018-07-25T02:26:00.892Z,66.63
2018-07-25T02:27:00.960Z,66.73
2018-07-25T02:28:01.073Z,66.69
2018-07-25T02:29:01.082Z,66.83
2018-07-25T02:30:00.948Z,66.74
2018-07-25T02:31:01.065Z,66.84
2018-07-25T02:32:00.994Z,66.57
2018-07-25T02:33:00.969Z,66.81
2018-07-25T02:34:00.920Z,66.65
2018-07-25T02:35:01.117Z,66.79
2018-07-25T02:36:00.914Z,66.76
2018-07-25T02:37:01.296Z,67.01
2018-07-25T02:38:01.217Z,66.7
2018-07-25T02:39:00.947Z,66.69
2018-07-25T02:40:01.052Z,66.79
2018-07-25T02:41:01.031Z,66.62
2018-07-25T02:42:00.925Z,66.39
2018-07-25T02:43:01.067Z,66.89
2018-07-25T02:44:01.052Z,66.8
2018-07-25T02:45:01.120Z,66.71
2018-07-25T02:46:01.135Z,66.79
2018-07-25T02:47:01.392Z,66.7
2018-07-25T02:48:00.910Z,66.66
2018-07-25T02:49:01.048Z,66.7
2018-07-25T02:50:01.053Z,66.49
2018-07-25T02:51:01.099Z,66.8
2018-07-25T02:52:01.136Z,66.76
2018-07-25T02:53:00.867Z,66.9
2018-07-25T02:54:01.072Z,66.48
2018-07-25T02:55:01.058Z,66.58
2018-07-25T02:56:00.937Z,66.89
2018-07-25T02:57:01.173Z,66.94
2018-07-25T02:58:00.954Z,66.81
2018-07-25T02:59:01.085Z,66.76
2018-07-25T03:00:01.108Z,66.9
2018-07-25T03:01:01.135Z,66.75
2018-07-25T03:02:01.663Z,66.68
2018-07-25T03:03:01.027Z,66.79
2018-07-25T03:04:00.918Z,66.69
2018-07-25T03:05:01.071Z,66.94
2018-07-25T03:06:00.922Z,66.95
2018-07-25T03:07:01.550Z,66.88
2018-07-25T03:08:01.329Z,66.49
2018-07-25T03:09:01.703Z,66.8
2018-07-25T03:10:01.262Z,66.61
2018-07-25T03:11:01.122Z,66.47
2018-07-25T03:12:01.132Z,66.62
2018-07-25T03:13:01.004Z,66.56
2018-07-25T03:14:01.092Z,66.76
2018-07-25T03:15:01.051Z,66.94
2018-07-25T03:16:01.084Z,66.87
2018-07-25T03:17:01.141Z,66.84
2018-07-25T03:18:01.108Z,66.79
2018-07-25T03:19:01.224Z,66.89
2018-07-25T03:20:01.403Z,66.64
2018-07-25T03:21:01.213Z,66.74
2018-07-25T03:22:00.973Z,66.7
2018-07-25T03:23:01.000Z,66.79
2018-07-25T03:24:00.856Z,66.79
2018-07-25T03:25:01.925Z,66.94
2018-07-25T03:26:00.931Z,66.57
2018-07-25T03:27:01.019Z,66.7
2018-07-25T03:28:01.024Z,66.88
2018-07-25T03:29:01.426Z,66.75
2018-07-25T03:30:01.012Z,67.08
2018-07-25T03:31:01.018Z,66.66
2018-07-25T03:32:01.143Z,66.98
2018-07-25T03:33:00.888Z,66.68
2018-07-25T03:34:01.461Z,66.6
2018-07-25T03:35:01.004Z,66.76
2018-07-25T03:36:01.308Z,66.74
2018-07-25T03:37:01.159Z,66.68
2018-07-25T03:38:01.482Z,66.89
2018-07-25T03:39:01.189Z,66.66
2018-07-25T03:40:01.106Z,66.57
2018-07-25T03:41:00.882Z,66.61
2018-07-25T03:42:11.033Z,66.77
2018-07-25T03:43:01.218Z,66.56
2018-07-25T03:44:00.979Z,66.62
2018-07-25T03:45:01.069Z,66.98
2018-07-25T03:46:01.191Z,66.64
2018-07-25T03:47:00.863Z,66.56
2018-07-25T03:48:01.019Z,67.02
2018-07-25T03:49:00.947Z,66.58
2018-07-25T03:50:00.985Z,66.58
2018-07-25T03:51:01.053Z,66.62
2018-07-25T03:52:00.987Z,66.6
2018-07-25T03:53:01.021Z,66.71
2018-07-25T03:54:00.950Z,66.61
2018-07-25T03:55:01.099Z,66.57
2018-07-25T03:56:00.891Z,66.82
2018-07-25T03:57:00.936Z,66.6
2018-07-25T03:58:00.821Z,66.66
2018-07-25T03:59:01.091Z,66.66
2018-07-25T04:00:01.051Z,66.81
2018-07-25T04:01:00.935Z,66.73
2018-07-25T04:02:01.131Z,66.67
2018-07-25T04:03:01.258Z,66.74
2018-07-25T04:04:01.057Z,66.76
2018-07-25T04:05:00.839Z,66.71
2018-07-25T04:06:01.126Z,66.43
2018-07-25T04:07:00.983Z,66.67
2018-07-25T04:08:01.061Z,66.88
2018-07-25T04:09:01.074Z,66.71
2018-07-25T04:10:01.031Z,66.6
2018-07-25T04:11:00.928Z,66.89
2018-07-25T04:12:01.053Z,66.63
2018-07-25T04:13:00.904Z,66.7
2018-07-25T04:14:00.946Z,66.42
2018-07-25T04:15:01.014Z,66.67
2018-07-25T04:16:01.176Z,66.57
2018-07-25T04:17:01.106Z,66.57
2018-07-25T04:18:01.177Z,66.97
2018-07-25T04:19:00.758Z,66.68
2018-07-25T04:20:01.045Z,66.92
2018-07-25T04:21:01.062Z,66.57
2018-07-25T04:22:01.142Z,66.74
2018-07-25T04:23:00.927Z,66.69
2018-07-25T04:24:00.943Z,66.67
2018-07-25T04:25:01.065Z,66.78
2018-07-25T04:26:00.920Z,66.77
2018-07-25T04:27:00.931Z,67.05
2018-07-25T04:28:00.913Z,66.78
2018-07-25T04:29:00.973Z,66.81
2018-07-25T04:30:01.057Z,66.62
2018-07-25T04:31:01.095Z,66.66
2018-07-25T04:32:00.884Z,66.7
2018-07-25T04:33:01.162Z,66.91
2018-07-25T04:34:00.947Z,66.82
2018-07-25T04:35:00.932Z,66.77
2018-07-25T04:36:01.249Z,66.61
2018-07-25T04:37:01.028Z,66.93
2018-07-25T04:38:01.108Z,66.69
2018-07-25T04:39:01.164Z,66.78
2018-07-25T04:40:01.073Z,66.54
2018-07-25T04:41:00.861Z,66.84
2018-07-25T04:42:01.105Z,66.7
2018-07-25T04:43:01.152Z,66.79
2018-07-25T04:44:00.886Z,66.53
2018-07-25T04:45:01.037Z,66.78
2018-07-25T04:46:01.251Z,66.61
2018-07-25T04:47:01.128Z,66.71
2018-07-25T04:48:01.000Z,66.86
2018-07-25T04:49:01.120Z,66.71
2018-07-25T04:50:00.902Z,66.7
2018-07-25T04:51:01.043Z,67.02
2018-07-25T04:52:01.067Z,66.59
2018-07-25T04:53:01.119Z,66.58
2018-07-25T04:54:00.940Z,66.72
2018-07-25T04:55:00.967Z,66.62
2018-07-25T04:56:00.977Z,66.82
2018-07-25T04:57:00.960Z,66.71
2018-07-25T04:58:01.098Z,66.76
2018-07-25T04:59:00.824Z,66.91
2018-07-25T05:00:01.015Z,66.87
2018-07-25T05:01:00.819Z,66.84
2018-07-25T05:02:00.977Z,66.79
2018-07-25T05:03:00.946Z,66.64
2018-07-25T05:04:00.942Z,66.91
2018-07-25T05:05:00.834Z,66.81
2018-07-25T05:06:01.017Z,66.96
2018-07-25T05:07:00.932Z,66.85
2018-07-25T05:08:00.858Z,66.75
2018-07-25T05:09:01.089Z,66.74
2018-07-25T05:10:00.862Z,66.87
2018-07-25T05:11:00.982Z,66.5
2018-07-25T05:12:01.067Z,66.72
2018-07-25T05:13:01.063Z,66.82
2018-07-25T05:14:01.035Z,66.55
2018-07-25T05:15:01.062Z,66.54
2018-07-25T05:16:01.042Z,66.86
2018-07-25T05:17:00.972Z,67.05
2018-07-25T05:18:01.743Z,66.64
2018-07-25T05:19:00.982Z,66.87
2018-07-25T05:20:01.028Z,66.65
2018-07-25T05:21:00.870Z,66.65
2018-07-25T05:22:01.077Z,66.9
2018-07-25T05:23:00.916Z,66.65
2018-07-25T05:24:01.182Z,66.97
2018-07-25T05:25:01.118Z,66.57
2018-07-25T05:26:00.821Z,66.92
2018-07-25T05:27:01.108Z,66.74
2018-07-25T05:28:01.016Z,66.54
2018-07-25T05:29:01.104Z,66.46
2018-07-25T05:30:01.039Z,66.85
2018-07-25T05:31:00.990Z,66.89
2018-07-25T05:32:00.834Z,66.85
2018-07-25T05:33:00.767Z,66.7
2018-07-25T05:34:01.112Z,66.52
2018-07-25T05:35:00.837Z,66.41
2018-07-25T05:36:01.123Z,66.49
2018-07-25T05:37:01.008Z,66.83
2018-07-25T05:38:01.365Z,66.83
2018-07-25T05:39:01.007Z,66.78
2018-07-25T05:40:00.885Z,66.76
2018-07-25T05:41:00.984Z,66.72
2018-07-25T05:42:01.082Z,66.86
2018-07-25T05:43:01.029Z,66.81
2018-07-25T05:44:00.834Z,66.57
2018-07-25T05:45:00.990Z,66.74
2018-07-25T05:46:00.996Z,66.56
2018-07-25T05:47:00.962Z,66.76
2018-07-25T05:48:00.960Z,66.79
2018-07-25T05:49:01.050Z,66.86
2018-07-25T05:50:00.983Z,66.69
2018-07-25T05:51:00.980Z,66.66
2018-07-25T05:52:00.812Z,66.89
2018-07-25T05:53:00.873Z,67.05
2018-07-25T05:54:01.097Z,66.74
2018-07-25T05:55:00.966Z,66.74
2018-07-25T05:56:00.974Z,67.05
2018-07-25T05:57:00.898Z,66.84
2018-07-25T05:58:01.039Z,66.62
2018-07-25T05:59:00.857Z,66.58
2018-07-25T06:00:00.940Z,66.74
2018-07-25T06:01:00.955Z,66.91
2018-07-25T06:02:00.868Z,66.48
2018-07-25T06:03:01.464Z,67.04
2018-07-25T06:04:00.989Z,66.91
2018-07-25T06:05:00.985Z,66.91
2018-07-25T06:06:01.198Z,66.55
2018-07-25T06:07:00.898Z,66.65
2018-07-25T06:08:00.878Z,67.08
2018-07-25T06:09:00.956Z,66.82
2018-07-25T06:10:00.913Z,66.62
2018-07-25T06:11:01.036Z,66.91
2018-07-25T06:12:00.821Z,66.82
2018-07-25T06:13:00.887Z,66.68
2018-07-25T06:14:00.903Z,66.38
2018-07-25T06:15:01.001Z,66.68
2018-07-25T06:16:00.927Z,66.55
2018-07-25T06:17:00.886Z,66.95
2018-07-25T06:18:00.824Z,67
2018-07-25T06:19:00.997Z,66.54
2018-07-25T06:20:00.788Z,66.62
2018-07-25T06:21:00.947Z,66.63
2018-07-25T06:22:00.862Z,66.89
2018-07-25T06:23:00.832Z,66.71
2018-07-25T06:24:00.930Z,66.87
2018-07-25T06:25:01.027Z,66.68
2018-07-25T06:26:01.002Z,66.61
2018-07-25T06:27:00.851Z,66.6
2018-07-25T06:28:00.964Z,66.71
2018-07-25T06:29:00.798Z,66.64
2018-07-25T06:30:00.922Z,66.56
2018-07-25T06:31:01.112Z,66.95
2018-07-25T06:32:00.839Z,66.57
2018-07-25T06:33:01.037Z,66.44
2018-07-25T06:34:00.845Z,66.58
2018-07-25T06:35:00.974Z,66.76
2018-07-25T06:36:00.803Z,66.62
2018-07-25T06:37:00.972Z,66.63
2018-07-25T06:38:01.015Z,66.8
2018-07-25T06:39:00.931Z,66.55
2018-07-25T06:40:00.980Z,66.56
2018-07-25T06:41:00.802Z,66.76
2018-07-25T06:42:01.162Z,66.87
2018-07-25T06:43:00.976Z,66.76
2018-07-25T06:44:00.904Z,66.78
2018-07-25T06:45:00.846Z,66.73
2018-07-25T06:46:00.979Z,66.6
2018-07-25T06:47:01.269Z,66.64
2018-07-25T06:48:00.900Z,66.69
2018-07-25T06:49:00.973Z,66.87
2018-07-25T06:50:00.853Z,66.67
2018-07-25T06:51:00.999Z,66.87
2018-07-25T06:52:00.960Z,66.83
2018-07-25T06:53:00.840Z,66.47
2018-07-25T06:54:00.896Z,66.48
2018-07-25T06:55:00.987Z,66.77
2018-07-25T06:56:01.033Z,66.83
2018-07-25T06:57:01.208Z,66.69
2018-07-25T06:58:01.181Z,66.64
2018-07-25T06:59:00.954Z,66.69
2018-07-25T07:00:01.082Z,66.82
2018-07-25T07:01:00.921Z,66.84
2018-07-25T07:02:00.841Z,66.78
2018-07-25T07:03:01.047Z,66.87
2018-07-25T07:04:00.735Z,66.57
2018-07-25T07:05:01.027Z,66.7
2018-07-25T07:06:01.066Z,66.57
2018-07-25T07:07:01.343Z,66.85
2018-07-25T07:08:00.928Z,66.74
2018-07-25T07:09:00.816Z,66.44
2018-07-25T07:10:00.950Z,66.49
2018-07-25T07:11:01.070Z,66.83
2018-07-25T07:12:00.970Z,66.64
2018-07-25T07:13:00.985Z,66.51
2018-07-25T07:14:01.151Z,66.76
2018-07-25T07:15:01.141Z,66.46
2018-07-25T07:16:00.963Z,66.79
2018-07-25T07:17:00.759Z,66.67
2018-07-25T07:18:01.080Z,66.34
2018-07-25T07:19:01.077Z,66.6
2018-07-25T07:20:00.890Z,66.75
2018-07-25T07:21:00.926Z,66.35
2018-07-25T07:22:00.795Z,66.57
2018-07-25T07:23:01.081Z,66.64
2018-07-25T07:24:01.200Z,66.96
2018-07-25T07:25:00.836Z,66.47
2018-07-25T07:26:00.992Z,66.6
2018-07-25T07:27:00.880Z,66.85
2018-07-25T07:28:00.866Z,66.56
2018-07-25T07:29:00.884Z,66.61
2018-07-25T07:30:01.037Z,66.77
2018-07-25T07:31:00.979Z,66.64
2018-07-25T07:32:00.901Z,66.34
2018-07-25T07:33:00.953Z,66.84
2018-07-25T07:34:01.020Z,66.51
2018-07-25T07:35:01.021Z,66.66
2018-07-25T07:36:00.995Z,66.47
2018-07-25T07:37:00.979Z,66.5
2018-07-25T07:38:00.844Z,66.73
2018-07-25T07:39:00.945Z,66.51
2018-07-25T07:40:01.011Z,66.46
2018-07-25T07:41:00.917Z,66.64
2018-07-25T07:42:00.946Z,66.66
2018-07-25T07:43:00.885Z,66.82
2018-07-25T07:44:11.057Z,66.63
2018-07-25T07:45:00.899Z,66.5
2018-07-25T07:46:00.797Z,66.79
2018-07-25T07:47:01.034Z,66.74
2018-07-25T07:48:00.992Z,66.37
2018-07-25T07:49:01.033Z,66.76
2018-07-25T07:50:01.057Z,66.53
2018-07-25T07:51:01.083Z,66.73
2018-07-25T07:52:00.859Z,66.43
2018-07-25T07:53:00.936Z,66.82
2018-07-25T07:54:01.110Z,66.95
2018-07-25T07:55:01.020Z,66.71
2018-07-25T07:56:00.902Z,66.65
2018-07-25T07:57:01.007Z,66.34
2018-07-25T07:58:00.798Z,66.47
2018-07-25T07:59:01.018Z,66.47
2018-07-25T08:00:00.967Z,66.33
2018-07-25T08:01:00.900Z,66.82
2018-07-25T08:02:00.913Z,66.94
2018-07-25T08:03:01.105Z,67.09
2018-07-25T08:04:00.910Z,66.96
2018-07-25T08:05:01.215Z,67.1
2018-07-25T08:06:00.897Z,66.97
2018-07-25T08:07:00.744Z,66.86
2018-07-25T08:08:00.957Z,66.91
2018-07-25T08:09:00.956Z,66.58
2018-07-25T08:10:00.973Z,66.72
2018-07-25T08:11:01.048Z,66.38
2018-07-25T08:12:00.932Z,66.65
2018-07-25T08:13:00.896Z,66.88
2018-07-25T08:14:00.927Z,66.54
2018-07-25T08:15:01.167Z,66.62
2018-07-25T08:16:00.751Z,66.79
2018-07-25T08:17:00.897Z,66.41
2018-07-25T08:18:00.995Z,66.67
2018-07-25T08:19:00.994Z,66.78
2018-07-25T08:20:01.004Z,66.56
2018-07-25T08:21:01.141Z,66.67
2018-07-25T08:22:00.895Z,66.84
2018-07-25T08:23:00.839Z,66.99
2018-07-25T08:24:00.903Z,67.23
2018-07-25T08:25:00.942Z,66.84
2018-07-25T08:26:00.971Z,66.66
2018-07-25T08:27:00.925Z,66.56
2018-07-25T08:28:00.929Z,66.76
2018-07-25T08:29:00.988Z,66.99
2018-07-25T08:30:01.033Z,66.58
2018-07-25T08:31:01.016Z,66.63
2018-07-25T08:32:01.084Z,66.65
2018-07-25T08:33:01.083Z,66.7
2018-07-25T08:34:00.872Z,66.85
2018-07-25T08:35:00.971Z,66.65
2018-07-25T08:36:01.157Z,66.75
2018-07-25T08:37:01.045Z,66.55
2018-07-25T08:38:00.941Z,66.72
2018-07-25T08:39:00.950Z,66.81
2018-07-25T08:40:01.003Z,66.61
2018-07-25T08:41:01.022Z,66.84
2018-07-25T09:41:27.241Z,67.79
2018-07-25T09:42:27.348Z,67.83
2018-07-25T09:43:27.472Z,67.65
2018-07-25T09:44:27.910Z,67.71
2018-07-25T09:46:27.580Z,67.72
2018-07-25T09:47:27.400Z,67.5
2018-07-25T09:48:27.209Z,67.49
2018-07-25T09:49:27.275Z,67.41
2018-07-25T09:51:27.627Z,67.31
2018-07-25T09:54:27.341Z,67.26
2018-07-25T09:55:27.297Z,67.34
2018-07-25T09:56:27.234Z,67.27
2018-07-25T09:57:27.239Z,67.36
2018-07-25T09:59:27.777Z,67.39
2018-07-25T10:00:27.192Z,67.39
2018-07-25T10:01:27.073Z,67.31
2018-07-25T10:04:27.117Z,67.24
2018-07-25T10:06:27.696Z,67.28
2018-07-25T10:07:27.278Z,67.03
2018-07-25T10:08:27.297Z,67.19
2018-07-25T10:09:27.186Z,67.13
2018-07-25T10:11:27.274Z,67.07
2018-07-25T10:12:27.141Z,67.04
2018-07-25T10:13:27.408Z,67.04
2018-07-25T10:14:27.733Z,67.01
2018-07-25T10:16:27.227Z,67.15
2018-07-25T10:17:27.282Z,67.04
2018-07-25T10:18:27.267Z,67.01
2018-07-25T10:19:27.246Z,67.16
2018-07-25T10:21:27.655Z,67.09
2018-07-25T10:22:27.251Z,66.91
2018-07-25T10:24:27.287Z,66.94
2018-07-25T10:25:27.326Z,67.01
2018-07-25T10:26:27.286Z,67.11
2018-07-25T10:27:27.538Z,66.96
2018-07-25T10:29:27.939Z,66.88
2018-07-25T10:30:27.316Z,66.91
2018-07-25T10:31:27.251Z,66.81
2018-07-25T10:34:27.221Z,66.71
2018-07-25T10:36:27.945Z,66.87
2018-07-25T10:37:27.393Z,67.06
2018-07-25T10:38:27.317Z,66.94
2018-07-25T10:41:27.253Z,66.99
2018-07-25T10:42:27.302Z,66.87
2018-07-25T10:43:27.481Z,66.99
2018-07-25T10:46:27.192Z,66.85
2018-07-25T10:47:27.201Z,66.87
2018-07-25T10:48:27.223Z,66.7
2018-07-25T10:49:27.232Z,66.83
2018-07-25T10:51:27.583Z,66.77
2018-07-25T10:53:27.316Z,66.92
2018-07-25T10:54:27.414Z,66.87
2018-07-25T10:55:27.347Z,66.78
2018-07-25T10:56:27.521Z,66.91
2018-07-25T10:58:27.391Z,66.91
2018-07-25T10:59:27.821Z,66.77
2018-07-25T11:00:27.296Z,66.89
2018-07-25T11:01:27.388Z,66.72
2018-07-25T11:04:27.549Z,66.73
2018-07-25T11:05:27.249Z,66.98
2018-07-25T11:06:27.723Z,66.95
2018-07-25T11:08:27.216Z,66.78
2018-07-25T11:09:27.222Z,66.83
2018-07-25T11:10:27.388Z,66.74
2018-07-25T11:11:27.682Z,66.86
2018-07-25T11:14:27.217Z,66.9
2018-07-25T11:15:27.684Z,66.6
2018-07-25T11:16:27.603Z,66.87
2018-07-25T11:19:27.641Z,66.8
2018-07-25T11:20:27.499Z,66.73
2018-07-25T11:21:27.593Z,66.72
2018-07-25T11:22:27.784Z,66.93
2018-07-25T11:24:27.219Z,66.83
2018-07-25T11:26:27.351Z,66.9
2018-07-25T11:27:27.268Z,66.54
2018-07-25T11:28:27.236Z,66.76
2018-07-25T11:29:28.043Z,66.93
2018-07-25T11:31:27.214Z,66.79
2018-07-25T11:32:27.343Z,66.97
2018-07-25T11:33:27.510Z,66.87
2018-07-25T11:34:27.292Z,66.78
2018-07-25T11:36:27.168Z,66.75
2018-07-25T11:37:27.151Z,66.69
2018-07-25T11:38:27.191Z,66.78
2018-07-25T11:39:27.169Z,66.93
2018-07-25T11:41:27.210Z,66.8
2018-07-25T11:42:27.188Z,66.88
2018-07-25T11:43:27.198Z,66.83
2018-07-25T11:44:27.193Z,66.85
2018-07-25T11:46:27.186Z,66.94
2018-07-25T11:48:27.151Z,67.04
2018-07-25T11:49:27.164Z,66.84
2018-07-25T11:50:27.501Z,66.87
2018-07-25T11:52:27.189Z,66.82
2018-07-25T11:53:27.191Z,67
2018-07-25T11:54:27.147Z,66.81
2018-07-25T11:55:27.422Z,66.85
2018-07-25T11:57:27.184Z,66.98
2018-07-25T11:58:27.239Z,66.85
2018-07-25T11:59:27.140Z,66.93
2018-07-25T12:00:27.151Z,66.88
2018-07-25T12:02:27.295Z,66.9
2018-07-25T12:03:27.250Z,66.93
2018-07-25T12:04:27.197Z,66.9
2018-07-25T12:05:27.079Z,66.82
2018-07-25T12:08:27.245Z,66.85
2018-07-25T12:09:27.742Z,66.94
2018-07-25T12:10:27.174Z,66.66
2018-07-25T12:11:27.265Z,66.72
2018-07-25T12:13:27.337Z,67.04
2018-07-25T12:14:27.231Z,66.81
2018-07-25T12:15:27.223Z,66.8
2018-07-25T12:16:27.219Z,66.82
2018-07-25T12:19:27.205Z,66.81
2018-07-25T12:20:27.328Z,66.79
2018-07-25T12:21:27.147Z,66.88
2018-07-25T12:24:27.806Z,66.96
2018-07-25T12:25:27.205Z,66.79
2018-07-25T12:26:27.444Z,66.85
2018-07-25T12:29:27.194Z,66.7
2018-07-25T12:30:27.168Z,66.69
2018-07-25T12:31:27.875Z,66.68
2018-07-25T12:35:27.344Z,66.98
2018-07-25T12:36:27.232Z,66.85
2018-07-25T12:37:27.284Z,66.92
2018-07-25T12:38:27.451Z,66.92
2018-07-25T12:40:27.136Z,66.61
2018-07-25T12:41:27.263Z,66.94
2018-07-25T12:42:27.336Z,66.87
2018-07-25T12:43:27.146Z,67.08
2018-07-25T12:46:27.519Z,66.9
2018-07-25T12:48:27.388Z,67.16
2018-07-25T12:51:27.151Z,66.89
2018-07-25T12:52:27.208Z,66.72
2018-07-25T12:53:27.754Z,66.94
2018-07-25T12:55:27.050Z,67.32
2018-07-25T12:56:27.192Z,67.51
2018-07-25T12:57:27.131Z,67.32
2018-07-25T12:58:27.202Z,67.49
2018-07-25T13:00:27.589Z,67.41
2018-07-25T13:01:27.197Z,67.63
2018-07-25T13:02:27.190Z,67.46
2018-07-25T13:03:27.173Z,67.38
2018-07-25T13:05:27.214Z,67.47
2018-07-25T13:06:27.047Z,67.49
2018-07-25T13:07:27.206Z,67.35
2018-07-25T13:08:27.943Z,67.39
2018-07-25T13:10:27.389Z,67.34
2018-07-25T13:11:27.286Z,67.43
2018-07-25T13:12:27.203Z,67.44
2018-07-25T13:13:27.344Z,67.51
2018-07-25T13:17:27.195Z,67.27
2018-07-25T13:18:27.160Z,67.2
2018-07-25T13:19:27.244Z,67.14
2018-07-25T13:20:27.243Z,67.13
2018-07-25T13:22:27.271Z,67.19
2018-07-25T13:23:27.879Z,67.28
2018-07-25T13:24:27.172Z,67.17
2018-07-25T13:25:27.333Z,67.03
2018-07-25T13:28:27.744Z,67.21
2018-07-25T13:29:27.162Z,67.23
2018-07-25T13:30:27.622Z,67.23
2018-07-25T13:33:27.188Z,67.23
2018-07-25T13:34:27.297Z,67.04
2018-07-25T13:35:27.308Z,67.08
2018-07-25T13:36:27.127Z,67.09
2018-07-25T13:38:27.990Z,67.3
2018-07-25T13:39:27.238Z,66.89
2018-07-25T13:40:27.178Z,66.96
2018-07-25T13:42:27.211Z,67.06
2018-07-25T13:43:27.166Z,67.15
2018-07-25T13:44:27.205Z,66.95
2018-07-25T13:45:28.102Z,67.16
2018-07-25T13:48:27.133Z,67.01
2018-07-25T13:49:27.180Z,67.27
2018-07-25T13:50:27.175Z,67.15
2018-07-25T13:51:27.365Z,67.08
2018-07-25T13:53:27.152Z,66.88
2018-07-25T13:54:27.216Z,66.9
2018-07-25T13:55:27.186Z,67
2018-07-25T13:56:27.178Z,66.93
2018-07-25T13:58:27.307Z,66.96
2018-07-25T13:59:27.235Z,67.15
2018-07-25T14:00:27.732Z,67.04
2018-07-25T14:01:26.987Z,67.17
2018-07-25T14:03:27.115Z,67.02
2018-07-25T14:04:27.214Z,67.03
2018-07-25T14:05:27.187Z,66.9
2018-07-25T14:06:27.111Z,66.72
2018-07-25T14:08:27.194Z,67.02
2018-07-25T14:10:27.130Z,66.78
2018-07-25T14:11:27.262Z,67.06
2018-07-25T14:12:27.138Z,66.94
2018-07-25T14:13:27.155Z,66.95
2018-07-25T14:16:27.162Z,66.76
2018-07-25T14:17:27.012Z,66.95
2018-07-25T14:19:27.155Z,66.74
2018-07-25T14:20:27.144Z,66.8
2018-07-25T14:21:27.128Z,66.98
2018-07-25T14:22:27.718Z,67.03
2018-07-25T14:24:27.457Z,67.05
2018-07-25T14:25:27.069Z,66.85
2018-07-25T14:27:27.422Z,67.06
2018-07-25T14:28:27.266Z,66.76
2018-07-25T14:29:27.442Z,66.97
2018-07-25T14:31:27.226Z,66.67
2018-07-25T14:32:27.168Z,66.69
2018-07-25T14:33:27.457Z,66.75
2018-07-25T14:34:27.269Z,66.84
2018-07-25T14:36:27.403Z,66.89
2018-07-25T14:37:27.762Z,66.81
2018-07-25T14:38:27.207Z,66.89
2018-07-25T14:39:27.108Z,66.83
2018-07-25T14:41:27.111Z,66.91
2018-07-25T14:42:27.110Z,67.01
2018-07-25T14:43:27.401Z,66.85
2018-07-25T14:44:27.936Z,66.88
2018-07-25T14:46:27.130Z,66.74
2018-07-25T14:47:27.149Z,66.76
2018-07-25T14:48:27.085Z,66.72
2018-07-25T14:49:27.132Z,66.9
2018-07-25T14:51:27.646Z,67
2018-07-25T14:54:27.472Z,66.65
2018-07-25T14:55:27.198Z,66.84
2018-07-25T14:57:27.181Z,66.69
2018-07-25T14:58:27.065Z,66.69
2018-07-25T14:59:27.893Z,66.95
2018-07-25T15:00:27.141Z,66.77
2018-07-25T15:02:27.426Z,66.88
2018-07-25T15:03:27.128Z,66.91
2018-07-25T15:04:27.242Z,66.91
2018-07-25T15:06:27.543Z,66.7
2018-07-25T15:07:27.143Z,66.88
2018-07-25T15:09:27.146Z,66.83
2018-07-25T15:10:27.143Z,66.61
2018-07-25T15:11:27.319Z,66.61
2018-07-25T15:15:27.222Z,66.69
2018-07-25T15:16:27.254Z,66.75
2018-07-25T15:17:27.248Z,66.9
2018-07-25T15:20:27.139Z,66.92
2018-07-25T15:21:27.362Z,66.76
2018-07-25T15:22:27.121Z,66.77
2018-07-25T15:23:26.981Z,66.88
2018-07-25T15:25:27.106Z,66.66
2018-07-25T15:27:27.115Z,66.67
2018-07-25T15:28:27.416Z,66.86
2018-07-25T15:29:27.474Z,66.96
2018-07-25T15:32:27.115Z,66.68
2018-07-25T15:33:27.101Z,66.8
2018-07-25T15:34:27.208Z,66.67
2018-07-25T15:35:27.116Z,66.8
2018-07-25T15:37:27.155Z,66.96
2018-07-25T15:38:27.133Z,66.72
2018-07-25T15:39:27.229Z,66.82